sensor_id;sensor_type;location;lat;lon;timestamp;pressure;altitude;pressure_sealevel;temperature;humidity
26438;BME280;14133;48.430;9.888;2022-08-21T00:01:42;95195.16;;;19.71;61.61
26438;BME280;14133;48.430;9.888;2022-08-21T00:11:22;95197.13;;;19.70;61.12
26438;BME280;14133;48.430;9.888;2022-08-21T00:21:03;95177.75;;;19.61;61.09
26438;BME280;14133;48.430;9.888;2022-08-21T00:30:44;95174.28;;;19.60;60.91
26438;BME280;14133;48.430;9.888;2022-08-21T00:40:31;95153.78;;;19.45;60.60
26438;BME280;14133;48.430;9.888;2022-08-21T00:50:12;95173.13;;;19.62;60.49
26438;BME280;14133;48.430;9.888;2022-08-21T00:59:56;95139.84;;;19.43;60.02
26438;BME280;14133;48.430;9.888;2022-08-21T01:09:38;95154.56;;;19.53;59.61
26438;BME280;14133;48.430;9.888;2022-08-21T01:19:21;95164.63;;;19.63;59.55
26438;BME280;14133;48.430;9.888;2022-08-21T01:39:03;95141.03;;;19.49;59.03
26438;BME280;14133;48.430;9.888;2022-08-21T01:48:44;95149.50;;;19.48;58.84
26438;BME280;14133;48.430;9.888;2022-08-21T02:08:14;95134.44;;;19.43;58.53
26438;BME280;14133;48.430;9.888;2022-08-21T02:17:58;95107.38;;;19.21;58.03
26438;BME280;14133;48.430;9.888;2022-08-21T02:27:42;95142.94;;;19.45;58.10
26438;BME280;14133;48.430;9.888;2022-08-21T02:37:23;95105.06;;;19.23;57.80
26438;BME280;14133;48.430;9.888;2022-08-21T02:47:04;95120.53;;;19.30;57.83
26438;BME280;14133;48.430;9.888;2022-08-21T02:56:45;95110.06;;;19.21;57.68
26438;BME280;14133;48.430;9.888;2022-08-21T03:06:25;95108.91;;;19.22;57.49
26438;BME280;14133;48.430;9.888;2022-08-21T03:16:06;95108.53;;;19.24;57.10
26438;BME280;14133;48.430;9.888;2022-08-21T03:25:47;95094.56;;;19.07;57.06
26438;BME280;14133;48.430;9.888;2022-08-21T03:35:29;95101.13;;;19.06;56.83
26438;BME280;14133;48.430;9.888;2022-08-21T03:45:09;95097.66;;;18.98;57.02
26438;BME280;14133;48.430;9.888;2022-08-21T03:54:50;95130.88;;;19.10;56.86
26438;BME280;14133;48.430;9.888;2022-08-21T04:04:31;95097.19;;;18.93;56.60
26438;BME280;14133;48.430;9.888;2022-08-21T04:14:12;95123.84;;;18.91;56.50
26438;BME280;14133;48.430;9.888;2022-08-21T04:23:54;95158.31;;;19.12;56.43
26438;BME280;14133;48.430;9.888;2022-08-21T04:33:35;95113.34;;;18.75;56.24
26438;BME280;14133;48.430;9.888;2022-08-21T04:43:16;95178.00;;;19.09;56.15
26438;BME280;14133;48.430;9.888;2022-08-21T04:52:57;95155.47;;;18.87;56.13
26438;BME280;14133;48.430;9.888;2022-08-21T05:02:38;95167.88;;;18.95;56.01
26438;BME280;14133;48.430;9.888;2022-08-21T05:12:20;95156.22;;;18.80;56.13
26438;BME280;14133;48.430;9.888;2022-08-21T05:22:01;95152.69;;;18.72;56.21
26438;BME280;14133;48.430;9.888;2022-08-21T05:31:43;95147.63;;;18.63;56.09
26438;BME280;14133;48.430;9.888;2022-08-21T05:41:24;95148.44;;;18.67;56.13
26438;BME280;14133;48.430;9.888;2022-08-21T05:51:07;95160.00;;;18.68;56.52
26438;BME280;14133;48.430;9.888;2022-08-21T06:00:51;95127.09;;;18.48;56.33
26438;BME280;14133;48.430;9.888;2022-08-21T06:10:33;95141.47;;;18.66;56.40
26438;BME280;14133;48.430;9.888;2022-08-21T06:20:13;95153.84;;;18.71;56.20
26438;BME280;14133;48.430;9.888;2022-08-21T06:29:54;95154.63;;;18.75;56.68
26438;BME280;14133;48.430;9.888;2022-08-21T06:39:36;95135.66;;;18.57;56.38
26438;BME280;14133;48.430;9.888;2022-08-21T06:49:17;95150.75;;;18.69;56.43
26438;BME280;14133;48.430;9.888;2022-08-21T06:58:57;95153.44;;;18.73;56.05
26438;BME280;14133;48.430;9.888;2022-08-21T07:08:39;95183.72;;;18.96;55.97
26438;BME280;14133;48.430;9.888;2022-08-21T07:18:19;95144.59;;;18.72;56.19
26438;BME280;14133;48.430;9.888;2022-08-21T07:28:00;95150.81;;;18.80;55.96
26438;BME280;14133;48.430;9.888;2022-08-21T07:37:41;95161.31;;;18.96;56.05
26438;BME280;14133;48.430;9.888;2022-08-21T07:47:22;95142.38;;;18.92;56.26
26438;BME280;14133;48.430;9.888;2022-08-21T08:06:53;95148.69;;;19.22;56.92
26438;BME280;14133;48.430;9.888;2022-08-21T08:16:33;95135.94;;;19.29;57.36
26438;BME280;14133;48.430;9.888;2022-08-21T08:26:13;95122.03;;;19.27;57.53
26438;BME280;14133;48.430;9.888;2022-08-21T08:35:56;95134.06;;;19.44;57.49
26438;BME280;14133;48.430;9.888;2022-08-21T08:45:39;95117.09;;;19.51;57.51
26438;BME280;14133;48.430;9.888;2022-08-21T08:55:23;95120.19;;;19.60;57.63
26438;BME280;14133;48.430;9.888;2022-08-21T09:05:07;95134.50;;;19.83;57.58
26438;BME280;14133;48.430;9.888;2022-08-21T09:15:09;95144.59;;;19.93;58.21
26438;BME280;14133;48.430;9.888;2022-08-21T09:35:03;95131.06;;;20.04;58.13
26438;BME280;14133;48.430;9.888;2022-08-21T09:44:44;95139.56;;;20.17;58.30
26438;BME280;14133;48.430;9.888;2022-08-21T09:54:37;95117.13;;;20.16;58.36
26438;BME280;14133;48.430;9.888;2022-08-21T10:04:21;95102.81;;;20.19;58.28
26438;BME280;14133;48.430;9.888;2022-08-21T10:14:12;95112.84;;;20.33;58.60
26438;BME280;14133;48.430;9.888;2022-08-21T10:54:32;95094.66;;;20.38;58.41
26438;BME280;14133;48.430;9.888;2022-08-21T11:04:30;95077.66;;;20.33;58.02
26438;BME280;14133;48.430;9.888;2022-08-21T11:14:24;95089.56;;;20.58;57.94
26438;BME280;14133;48.430;9.888;2022-08-21T11:54:12;95036.53;;;20.60;57.53
26438;BME280;14133;48.430;9.888;2022-08-21T12:04:02;95029.94;;;20.68;57.17
26438;BME280;14133;48.430;9.888;2022-08-21T12:23:58;95036.00;;;21.02;56.60
26438;BME280;14133;48.430;9.888;2022-08-21T12:33:40;95031.31;;;21.06;56.44
26438;BME280;14133;48.430;9.888;2022-08-21T12:43:29;95013.53;;;21.01;56.41
26438;BME280;14133;48.430;9.888;2022-08-21T13:03:03;95009.53;;;21.20;56.10
26438;BME280;14133;48.430;9.888;2022-08-21T13:12:44;95009.25;;;21.04;56.82
26438;BME280;14133;48.430;9.888;2022-08-21T13:22:27;95008.44;;;21.10;56.38
26438;BME280;14133;48.430;9.888;2022-08-21T13:32:22;94999.66;;;20.88;56.96
26438;BME280;14133;48.430;9.888;2022-08-21T13:42:11;95020.94;;;20.97;57.40
26438;BME280;14133;48.430;9.888;2022-08-21T13:51:52;95008.56;;;20.89;57.71
26438;BME280;14133;48.430;9.888;2022-08-21T14:01:36;94972.63;;;20.66;57.68
26438;BME280;14133;48.430;9.888;2022-08-21T14:11:20;94981.94;;;20.69;57.57
26438;BME280;14133;48.430;9.888;2022-08-21T14:21:05;94959.13;;;20.63;57.57
26438;BME280;14133;48.430;9.888;2022-08-21T14:30:46;94973.03;;;20.65;57.48
26438;BME280;14133;48.430;9.888;2022-08-21T14:40:27;94973.38;;;20.81;57.50
26438;BME280;14133;48.430;9.888;2022-08-21T14:50:08;94978.72;;;20.96;57.17
26438;BME280;14133;48.430;9.888;2022-08-21T14:59:49;94982.91;;;21.04;57.44
26438;BME280;14133;48.430;9.888;2022-08-21T15:09:30;94979.00;;;21.09;57.34
26438;BME280;14133;48.430;9.888;2022-08-21T15:19:10;94957.09;;;20.85;57.48
26438;BME280;14133;48.430;9.888;2022-08-21T15:28:51;94969.84;;;20.88;57.71
26438;BME280;14133;48.430;9.888;2022-08-21T15:38:31;94946.69;;;20.73;57.78
26438;BME280;14133;48.430;9.888;2022-08-21T15:48:13;94944.38;;;20.75;58.10
26438;BME280;14133;48.430;9.888;2022-08-21T15:57:54;94950.13;;;20.84;57.93
26438;BME280;14133;48.430;9.888;2022-08-21T16:07:35;94946.25;;;20.85;58.06
26438;BME280;14133;48.430;9.888;2022-08-21T16:17:15;94915.38;;;20.68;58.08
26438;BME280;14133;48.430;9.888;2022-08-21T16:26:56;94924.63;;;20.71;58.40
26438;BME280;14133;48.430;9.888;2022-08-21T16:36:36;94927.41;;;20.63;58.47
26438;BME280;14133;48.430;9.888;2022-08-21T16:46:18;94934.31;;;20.75;58.48
26438;BME280;14133;48.430;9.888;2022-08-21T16:55:59;94897.66;;;20.52;58.57
26438;BME280;14133;48.430;9.888;2022-08-21T17:05:41;94898.41;;;20.53;58.75
26438;BME280;14133;48.430;9.888;2022-08-21T17:15:25;94927.72;;;20.73;58.83
26438;BME280;14133;48.430;9.888;2022-08-21T17:25:25;94890.75;;;20.41;58.83
26438;BME280;14133;48.430;9.888;2022-08-21T17:35:21;94910.06;;;20.50;58.89
26438;BME280;14133;48.430;9.888;2022-08-21T17:45:02;94925.84;;;20.62;58.92
26438;BME280;14133;48.430;9.888;2022-08-21T17:54:43;94904.28;;;20.41;58.80
26438;BME280;14133;48.430;9.888;2022-08-21T18:04:23;94890.44;;;20.28;59.09
26438;BME280;14133;48.430;9.888;2022-08-21T18:14:05;94936.34;;;20.57;58.79
26438;BME280;14133;48.430;9.888;2022-08-21T18:23:46;94907.41;;;20.32;59.26
26438;BME280;14133;48.430;9.888;2022-08-21T18:33:26;94922.53;;;20.29;59.04
26438;BME280;14133;48.430;9.888;2022-08-21T18:43:07;94955.31;;;20.49;59.19
26438;BME280;14133;48.430;9.888;2022-08-21T18:52:49;94934.13;;;20.33;59.36
26438;BME280;14133;48.430;9.888;2022-08-21T19:02:29;94948.03;;;20.35;59.31
26438;BME280;14133;48.430;9.888;2022-08-21T19:12:23;94973.16;;;20.40;59.36
26438;BME280;14133;48.430;9.888;2022-08-21T19:22:05;94982.44;;;20.42;59.01
26438;BME280;14133;48.430;9.888;2022-08-21T19:31:46;94981.28;;;20.36;59.03
26438;BME280;14133;48.430;9.888;2022-08-21T19:41:30;94948.91;;;20.11;59.02
26438;BME280;14133;48.430;9.888;2022-08-21T19:51:11;94953.13;;;20.19;59.10
26438;BME280;14133;48.430;9.888;2022-08-21T20:00:52;94962.00;;;20.19;59.31
26438;BME280;14133;48.430;9.888;2022-08-21T20:10:32;94975.91;;;20.25;59.08
26438;BME280;14133;48.430;9.888;2022-08-21T20:20:13;94979.44;;;20.22;59.32
26438;BME280;14133;48.430;9.888;2022-08-21T20:29:54;94978.63;;;20.21;58.96
26438;BME280;14133;48.430;9.888;2022-08-21T20:39:34;94973.28;;;20.11;58.98
26438;BME280;14133;48.430;9.888;2022-08-21T20:49:20;94997.97;;;20.27;58.95
26438;BME280;14133;48.430;9.888;2022-08-21T21:09:16;94972.50;;;20.10;58.78
26438;BME280;14133;48.430;9.888;2022-08-21T21:19:08;94986.38;;;20.19;58.56
26438;BME280;14133;48.430;9.888;2022-08-21T21:29:14;94988.72;;;20.21;58.63
26438;BME280;14133;48.430;9.888;2022-08-21T21:39:02;94985.22;;;20.17;58.37
26438;BME280;14133;48.430;9.888;2022-08-21T21:48:59;94981.41;;;20.11;58.05
26438;BME280;14133;48.430;9.888;2022-08-21T22:18:46;94982.56;;;19.99;57.30
26438;BME280;14133;48.430;9.888;2022-08-21T22:28:29;94990.69;;;19.99;57.36
26438;BME280;14133;48.430;9.888;2022-08-21T22:48:07;94999.97;;;20.01;56.33
26438;BME280;14133;48.430;9.888;2022-08-21T22:58:07;94997.66;;;19.93;56.23
26438;BME280;14133;48.430;9.888;2022-08-21T23:07:49;94993.00;;;19.86;56.00
26438;BME280;14133;48.430;9.888;2022-08-21T23:17:38;94980.28;;;19.83;55.61
26438;BME280;14133;48.430;9.888;2022-08-21T23:38:04;94983.38;;;19.85;55.19
26438;BME280;14133;48.430;9.888;2022-08-21T23:48:06;94976.78;;;19.82;55.12
